Time;durP1;ratioP1;P1;durP2;ratioP2;P2;SDS_P1;SDS_P2;PMS_P1;PMS_P2;Temp;Humidity;BMP_temperature;BMP_pressure;BME280_temperature;BME280_humidity;BME280_pressure;Samples;Min_cycle;Max_cycle;Signal;HPM_P1;HPM_P2
2023/12/23 00:05:48;;;;;;;2.63;0.50;;;;;;;11.14;67.58;99951.59;5944958;24;20188;-75
2023/12/23 00:08:16;;;;;;;2.90;0.50;;;;;;;11.07;67.74;99955.91;5945713;23;20293;-76
2023/12/23 00:10:56;;;;;;;4.43;0.80;;;;;;;11.10;68.21;99968.84;6000722;23;20177;-77
2023/12/23 00:39:04;;;;;;;3.73;0.93;;;;;;;11.13;70.09;100019.78;5764859;24;20195;-77
2023/12/23 00:42:36;;;;;;;2.70;0.70;;;;;;;11.13;70.21;100025.06;5860930;24;20247;-75
2023/12/23 00:45:13;;;;;;;3.33;0.90;;;;;;;11.14;70.82;100023.25;5862308;24;20195;-75
2023/12/23 00:47:41;;;;;;;6.10;1.10;;;;;;;11.17;70.64;100033.56;5949544;23;20629;-75
2023/12/23 00:50:25;;;;;;;3.87;0.90;;;;;;;11.22;70.94;100031.22;6054064;23;20738;-74
2023/12/23 00:58:06;;;;;;;2.40;0.80;;;;;;;11.29;71.19;100030.41;5887233;24;20284;-75
2023/12/23 01:20:38;;;;;;;6.70;1.10;;;;;;;11.32;69.89;100039.88;5875962;23;20182;-75
2023/12/23 01:23:19;;;;;;;7.80;1.30;;;;;;;11.33;69.49;100046.84;6081173;23;20266;-75
2023/12/23 01:26:17;;;;;;;5.20;1.13;;;;;;;11.28;69.54;100057.94;6112447;23;20570;-75
2023/12/23 01:28:53;;;;;;;4.10;0.93;;;;;;;11.32;70.37;100066.44;6049332;23;21113;-75
2023/12/23 01:31:59;;;;;;;4.63;1.27;;;;;;;11.31;70.85;100075.38;6099560;23;20192;-75
2023/12/23 01:34:27;;;;;;;3.27;1.23;;;;;;;11.26;70.97;100067.06;6110493;23;20218;-75
2023/12/23 01:37:17;;;;;;;4.60;1.03;;;;;;;11.26;70.95;100064.41;6111094;23;20190;-75
2023/12/23 01:58:55;;;;;;;5.73;1.00;;;;;;;11.37;70.41;100063.25;5942240;24;20642;-75
2023/12/23 02:02:08;;;;;;;4.50;1.10;;;;;;;11.35;70.33;100060.78;6058321;23;20267;-75
2023/12/23 02:04:36;;;;;;;3.90;1.07;;;;;;;11.35;70.45;100070.56;6144212;23;20195;-75
2023/12/23 02:07:18;;;;;;;3.50;0.70;;;;;;;11.37;70.70;100073.88;6144392;23;20177;-75
2023/12/23 02:10:00;;;;;;;3.57;0.90;;;;;;;11.39;70.52;100088.66;6145219;23;20258;-75
2023/12/23 04:52:32;;;;;;;;;;;;;;;;;;;;;
2023/12/23 05:13:20;;;;;;;4.93;1.10;;;;;;;10.73;80.97;100023.09;5897379;24;20199;-77
2023/12/23 06:02:31;;;;;;;6.07;1.33;;;;;;;10.79;76.26;99995.97;5781632;24;20200;-75
2023/12/23 06:09:16;;;;;;;4.23;0.93;;;;;;;10.80;76.12;99999.44;5859319;24;20559;-75
2023/12/23 06:12:23;;;;;;;5.73;1.27;;;;;;;10.82;75.72;100010.72;5913670;24;20186;-75
2023/12/23 06:36:31;;;;;;;3.27;1.13;;;;;;;10.70;75.47;99996.94;5805840;24;20238;-76
2023/12/23 06:39:16;;;;;;;7.57;1.97;;;;;;;10.66;75.46;99982.31;5815506;24;20244;-75
2023/12/23 06:45:21;;;;;;;5.83;1.33;;;;;;;10.67;75.15;99981.31;6078934;23;20695;-76
2023/12/23 06:48:36;;;;;;;7.03;1.60;;;;;;;10.74;74.97;99968.25;6115316;23;20712;-76
2023/12/23 06:51:37;;;;;;;5.67;1.43;;;;;;;10.70;75.14;99970.41;6145572;23;20238;-76
2023/12/23 07:03:45;;;;;;;5.13;1.23;;;;;;;10.60;74.63;99959.09;6134151;23;20276;-75
2023/12/23 07:06:13;;;;;;;6.03;1.20;;;;;;;10.62;74.35;99964.25;6144398;23;20236;-75
2023/12/23 07:08:42;;;;;;;8.23;1.30;;;;;;;10.62;74.31;99970.38;6144567;23;20180;-75
2023/12/23 07:11:19;;;;;;;6.80;1.70;;;;;;;10.64;74.33;99988.78;6145432;23;20213;-75
2023/12/23 07:28:15;;;;;;;5.23;1.30;;;;;;;10.66;73.82;99990.28;6078371;23;20199;-69
2023/12/23 07:30:45;;;;;;;4.97;1.20;;;;;;;10.65;73.80;99995.72;6082913;23;20254;-71
2023/12/23 07:33:13;;;;;;;8.53;1.13;;;;;;;10.67;73.44;100002.53;6082646;23;20285;-70
2023/12/23 07:35:42;;;;;;;6.03;1.30;;;;;;;10.64;73.14;100002.88;6081159;23;20220;-68
2023/12/23 07:38:09;;;;;;;5.40;1.33;;;;;;;10.74;72.79;100002.72;6083473;23;20278;-70
2023/12/23 07:40:38;;;;;;;3.37;1.00;;;;;;;10.70;73.16;100002.22;6082910;23;20178;-70
2023/12/23 07:43:07;;;;;;;7.17;1.10;;;;;;;10.75;73.00;100013.19;6080933;23;20186;-69
2023/12/23 07:45:35;;;;;;;5.00;1.10;;;;;;;10.71;72.96;100041.03;6082096;23;20187;-69
2023/12/23 07:48:05;;;;;;;3.77;1.10;;;;;;;10.60;73.35;100017.44;6081567;23;20185;-70
2023/12/23 07:50:33;;;;;;;5.57;1.10;;;;;;;10.61;73.58;100013.78;6084071;23;20210;-69
2023/12/23 07:53:01;;;;;;;2.33;0.83;;;;;;;10.65;73.30;100032.84;6084748;23;20485;-72
2023/12/23 07:55:29;;;;;;;6.43;1.00;;;;;;;10.70;73.05;100026.09;6084163;23;20302;-70
2023/12/23 07:57:56;;;;;;;6.83;1.10;;;;;;;10.69;72.86;100050.94;6083290;23;20647;-71
2023/12/23 08:00:24;;;;;;;4.20;1.00;;;;;;;10.69;72.69;100016.47;6083597;23;20194;-69
2023/12/23 08:02:52;;;;;;;2.37;0.90;;;;;;;10.57;73.11;100044.25;6083654;23;20296;-69
2023/12/23 08:05:22;;;;;;;4.47;0.90;;;;;;;10.56;73.25;100034.63;6082616;23;20187;-69
2023/12/23 08:07:50;;;;;;;3.80;1.07;;;;;;;10.63;73.21;100042.81;6083247;23;20643;-70
2023/12/23 08:10:17;;;;;;;2.37;0.90;;;;;;;10.68;72.81;100043.97;6085908;23;20779;-71
2023/12/23 08:12:45;;;;;;;3.03;0.73;;;;;;;10.73;72.93;100060.22;6083976;23;20484;-70
2023/12/23 08:15:13;;;;;;;3.13;0.70;;;;;;;10.78;73.06;100062.44;6082452;23;20250;-69
2023/12/23 08:17:41;;;;;;;3.13;0.87;;;;;;;10.75;73.13;100057.44;6084636;23;20183;-69
2023/12/23 08:20:09;;;;;;;3.03;0.70;;;;;;;10.62;73.61;100065.84;6083989;23;20189;-69
2023/12/23 08:22:40;;;;;;;2.87;0.77;;;;;;;10.63;73.95;100071.97;6084031;23;21134;-71
2023/12/23 08:25:09;;;;;;;4.33;0.90;;;;;;;10.65;74.22;100067.31;6057963;23;20188;-71
2023/12/23 08:27:38;;;;;;;1.80;0.60;;;;;;;10.67;74.49;100063.53;6057070;23;20199;-71
2023/12/23 08:30:08;;;;;;;4.60;0.87;;;;;;;10.62;74.59;100057.88;6057857;23;20214;-68
2023/12/23 08:32:37;;;;;;;4.67;0.93;;;;;;;10.63;74.70;100069.31;6059089;23;20219;-69
2023/12/23 08:35:05;;;;;;;3.33;0.90;;;;;;;10.65;74.92;100056.72;6057713;23;20188;-70
2023/12/23 08:37:33;;;;;;;1.30;0.40;;;;;;;10.60;74.90;100059.84;6058144;23;20219;-70
2023/12/23 08:40:05;;;;;;;4.83;0.80;;;;;;;10.61;74.71;100045.63;6056840;23;20294;-69
2023/12/23 08:42:33;;;;;;;3.33;0.80;;;;;;;10.64;74.70;100049.78;6055575;23;20175;-71
2023/12/23 08:45:03;;;;;;;3.10;0.90;;;;;;;10.64;75.02;100047.97;6055428;23;20257;-69
2023/12/23 08:47:31;;;;;;;2.63;0.80;;;;;;;10.66;75.20;100043.31;6053722;23;20922;-69
2023/12/23 08:49:58;;;;;;;4.63;0.60;;;;;;;10.70;75.17;100052.63;6055388;23;20309;-69
2023/12/23 08:52:27;;;;;;;1.77;0.70;;;;;;;10.71;75.60;100058.75;6054808;23;20187;-70
2023/12/23 08:54:55;;;;;;;3.63;0.90;;;;;;;10.74;75.68;100067.19;6053772;23;20188;-68
2023/12/23 08:57:24;;;;;;;2.47;0.60;;;;;;;10.75;75.72;100062.72;6056609;23;20637;-72
2023/12/23 08:59:52;;;;;;;3.13;0.67;;;;;;;10.78;75.76;100068.56;6054754;23;20226;-69
2023/12/23 09:02:20;;;;;;;1.93;0.67;;;;;;;10.76;75.96;100064.41;6054362;23;20262;-71
2023/12/23 09:04:49;;;;;;;3.53;0.80;;;;;;;10.71;76.27;100070.19;6053521;23;20200;-69
2023/12/23 09:07:17;;;;;;;2.17;0.53;;;;;;;10.74;76.29;100077.81;6054070;23;20184;-69
2023/12/23 09:09:45;;;;;;;2.50;0.60;;;;;;;10.73;76.46;100075.34;6054067;23;20202;-65
2023/12/23 09:12:13;;;;;;;1.57;0.40;;;;;;;10.77;76.25;100076.66;6056748;23;20183;-66
2023/12/23 09:14:43;;;;;;;1.70;0.50;;;;;;;10.81;76.05;100073.56;6053235;23;20201;-65
2023/12/23 09:17:11;;;;;;;1.03;0.50;;;;;;;10.94;75.60;100068.63;6053940;23;20628;-66
2023/12/23 09:19:40;;;;;;;1.53;0.47;;;;;;;10.98;75.28;100076.28;6053195;23;20620;-65
2023/12/23 09:22:08;;;;;;;1.40;0.43;;;;;;;10.94;75.65;100079.22;6055600;23;20934;-65
2023/12/23 09:24:36;;;;;;;1.13;0.50;;;;;;;11.02;75.61;100080.25;6055609;23;20214;-65
2023/12/23 09:27:04;;;;;;;1.50;0.40;;;;;;;11.06;75.05;100074.47;6055304;23;20199;-65
2023/12/23 09:29:32;;;;;;;1.10;0.40;;;;;;;11.15;74.76;100086.78;6054946;23;20183;-66
2023/12/23 09:32:02;;;;;;;1.00;0.40;;;;;;;11.21;74.71;100091.44;6055804;23;20217;-67
2023/12/23 09:34:30;;;;;;;0.60;0.30;;;;;;;11.21;74.50;100078.16;6055258;23;20469;-66
2023/12/23 09:36:59;;;;;;;0.30;0.20;;;;;;;11.30;74.39;100076.38;6057010;23;20696;-68
2023/12/23 09:39:28;;;;;;;0.80;0.30;;;;;;;11.29;74.62;100067.56;6056126;23;20190;-66
2023/12/23 09:41:56;;;;;;;0.20;0.20;;;;;;;11.19;74.98;100082.81;6055198;23;20274;-68
2023/12/23 09:44:24;;;;;;;0.90;0.40;;;;;;;11.28;74.89;100073.03;6052487;23;20326;-65
2023/12/23 09:46:52;;;;;;;0.67;0.20;;;;;;;11.23;74.60;100067.41;6053399;23;20238;-70
2023/12/23 09:49:21;;;;;;;2.27;0.30;;;;;;;11.24;75.03;100077.03;6054155;23;20193;-66
2023/12/23 09:51:51;;;;;;;0.80;0.30;;;;;;;11.20;75.71;100073.00;6055703;23;20231;-65
2023/12/23 09:54:21;;;;;;;1.20;0.40;;;;;;;11.21;75.73;100066.72;6054204;23;20183;-66
2023/12/23 09:56:51;;;;;;;0.67;0.40;;;;;;;11.20;75.32;100075.66;6054987;23;20206;-64
2023/12/23 09:59:20;;;;;;;0.80;0.37;;;;;;;11.23;75.59;100080.66;6055226;23;20270;-65
2023/12/23 10:01:48;;;;;;;1.53;0.53;;;;;;;11.18;75.77;100062.56;6056039;23;20219;-66
2023/12/23 10:04:16;;;;;;;0.83;0.30;;;;;;;11.17;75.85;100089.28;6056284;23;20246;-65
2023/12/23 10:06:45;;;;;;;0.90;0.30;;;;;;;11.17;75.82;100078.66;6057682;23;20259;-66
2023/12/23 10:09:12;;;;;;;1.43;0.50;;;;;;;11.20;75.81;100080.97;6057190;23;20187;-64
2023/12/23 10:11:40;;;;;;;3.40;0.73;;;;;;;11.24;75.63;100075.19;6056259;23;20211;-66
2023/12/23 10:14:08;;;;;;;0.83;0.40;;;;;;;11.28;75.43;100075.69;6056217;23;20183;-66
2023/12/23 10:16:36;;;;;;;1.03;0.30;;;;;;;11.27;75.25;100063.41;6058115;23;20273;-65
2023/12/23 10:19:09;;;;;;;0.57;0.30;;;;;;;11.28;75.60;100071.22;6058483;23;20167;-65
2023/12/23 10:21:38;;;;;;;0.73;0.30;;;;;;;11.31;75.37;100091.31;6056618;23;20195;-66
2023/12/23 10:24:07;;;;;;;1.50;0.40;;;;;;;11.25;75.33;100073.38;6056041;23;20210;-67
2023/12/23 10:26:35;;;;;;;0.60;0.30;;;;;;;11.28;75.42;100070.38;6056044;23;20230;-67
2023/12/23 10:29:05;;;;;;;0.40;0.30;;;;;;;11.29;75.40;100078.19;6056365;23;20520;-68
2023/12/23 10:31:35;;;;;;;1.20;0.47;;;;;;;11.31;75.48;100086.81;6055063;23;20686;-64
2023/12/23 10:34:08;;;;;;;0.20;0.20;;;;;;;11.35;75.39;100082.00;6055677;23;20262;-65
2023/12/23 10:36:37;;;;;;;0.20;0.20;;;;;;;11.29;75.77;100086.16;6052595;23;20177;-66
2023/12/23 10:39:13;;;;;;;1.80;0.20;;;;;;;11.38;75.84;100092.31;6052925;23;20183;-64
2023/12/23 10:41:47;;;;;;;0.70;0.33;;;;;;;11.35;76.64;100092.63;6055231;23;20246;-64
2023/12/23 10:44:17;;;;;;;0.40;0.30;;;;;;;11.36;76.69;100099.59;6054242;23;20208;-66
2023/12/23 10:46:47;;;;;;;1.27;0.30;;;;;;;11.31;77.17;100080.69;6054711;23;20242;-67
2023/12/23 10:49:18;;;;;;;0.70;0.30;;;;;;;11.38;76.85;100084.34;6055544;23;20773;-65
2023/12/23 10:51:47;;;;;;;0.87;0.40;;;;;;;11.36;76.89;100094.28;6055220;23;20250;-66
2023/12/23 10:54:16;;;;;;;1.47;0.60;;;;;;;11.31;77.38;100097.44;6053401;23;20374;-67
2023/12/23 10:56:45;;;;;;;0.73;0.40;;;;;;;11.30;77.86;100085.16;6054330;23;20265;-66
2023/12/23 10:59:13;;;;;;;1.97;0.40;;;;;;;11.25;78.69;100068.06;6054751;23;20191;-67
2023/12/23 11:01:42;;;;;;;1.03;0.40;;;;;;;11.28;78.65;100078.34;6054639;23;20526;-65
2023/12/23 11:04:10;;;;;;;0.90;0.30;;;;;;;11.19;79.55;100081.97;6053393;23;20215;-67
2023/12/23 11:06:42;;;;;;;1.37;0.50;;;;;;;11.19;79.83;100082.81;6054917;23;20630;-68
2023/12/23 11:09:11;;;;;;;0.70;0.30;;;;;;;11.19;80.46;100089.94;6055283;23;20219;-68
2023/12/23 11:11:42;;;;;;;1.13;0.33;;;;;;;11.23;79.52;100080.66;6053272;23;20207;-66
2023/12/23 11:14:10;;;;;;;1.27;0.30;;;;;;;11.32;79.21;100098.28;6056490;23;20215;-66
2023/12/23 11:16:39;;;;;;;0.97;0.40;;;;;;;11.34;79.32;100106.91;6054066;23;20755;-67
2023/12/23 11:19:07;;;;;;;3.13;0.40;;;;;;;11.35;79.57;100097.94;6054031;23;20187;-66
2023/12/23 11:21:35;;;;;;;1.07;0.40;;;;;;;11.25;79.72;100107.88;6054741;23;20187;-68
2023/12/23 11:24:03;;;;;;;0.97;0.53;;;;;;;11.23;80.00;100100.06;6056178;23;20215;-66
2023/12/23 11:26:42;;;;;;;1.80;0.50;;;;;;;11.28;79.60;100111.03;6059050;23;20219;-67
2023/12/23 11:29:14;;;;;;;0.37;0.30;;;;;;;11.27;79.20;100109.38;6060690;23;20278;-66
2023/12/23 11:31:42;;;;;;;1.37;0.40;;;;;;;11.36;78.81;100110.22;6056962;23;20192;-65
2023/12/23 11:34:14;;;;;;;1.73;0.30;;;;;;;11.39;78.29;100107.25;6058670;23;20187;-64
2023/12/23 11:36:44;;;;;;;1.43;0.40;;;;;;;11.30;78.79;100089.63;6059225;23;20179;-65
2023/12/23 11:39:13;;;;;;;0.70;0.30;;;;;;;11.35;78.14;100089.97;6059196;23;20246;-64
2023/12/23 11:41:45;;;;;;;0.97;0.40;;;;;;;11.37;77.96;100103.09;6060107;23;20186;-65
2023/12/23 11:44:15;;;;;;;0.97;0.50;;;;;;;11.42;77.30;100093.66;6058447;23;20179;-66
2023/12/23 11:46:44;;;;;;;0.90;0.60;;;;;;;11.50;76.72;100090.19;6056961;23;20262;-66
2023/12/23 11:49:12;;;;;;;1.53;0.47;;;;;;;11.45;76.72;100093.31;6059118;23;20201;-65
2023/12/23 11:51:40;;;;;;;2.67;0.80;;;;;;;11.49;76.79;100084.03;6057249;23;20719;-63
2023/12/23 11:54:08;;;;;;;1.47;0.60;;;;;;;11.52;76.77;100089.00;6056854;23;20184;-68
2023/12/23 11:56:36;;;;;;;2.47;0.60;;;;;;;11.53;76.90;100095.16;6059522;23;20184;-65
2023/12/23 11:59:06;;;;;;;2.17;0.60;;;;;;;11.46;76.63;100087.00;6057934;23;20197;-65
2023/12/23 12:01:34;;;;;;;1.60;0.60;;;;;;;11.55;76.53;100083.38;6058357;23;20274;-63
2023/12/23 12:04:02;;;;;;;1.03;0.50;;;;;;;11.59;76.39;100073.28;6056817;23;20175;-65
2023/12/23 12:06:31;;;;;;;1.43;0.70;;;;;;;11.68;76.01;100082.91;6058448;23;20222;-63
2023/12/23 12:09:00;;;;;;;0.80;0.30;;;;;;;11.59;76.19;100078.59;6060203;23;20195;-64
2023/12/23 12:11:28;;;;;;;2.17;0.40;;;;;;;11.58;76.31;100077.75;6058040;23;20266;-65
2023/12/23 12:13:58;;;;;;;1.27;0.40;;;;;;;11.63;76.58;100080.72;6058690;23;20187;-64
2023/12/23 12:16:28;;;;;;;0.93;0.33;;;;;;;11.67;76.17;100065.31;6058823;23;20172;-64
2023/12/23 12:18:56;;;;;;;1.23;0.70;;;;;;;11.67;76.06;100074.13;6058857;23;20188;-65
2023/12/23 12:21:24;;;;;;;0.83;0.40;;;;;;;11.63;76.27;100075.44;6059559;23;20184;-67
2023/12/23 12:23:57;;;;;;;0.83;0.40;;;;;;;11.59;76.55;100060.00;6058987;23;20204;-66
2023/12/23 12:26:26;;;;;;;1.57;0.50;;;;;;;11.51;76.46;100074.09;6058146;23;20647;-65
2023/12/23 12:28:54;;;;;;;1.50;0.70;;;;;;;11.46;76.69;100060.47;6058666;23;20195;-66
2023/12/23 12:31:23;;;;;;;0.60;0.40;;;;;;;11.47;76.51;100061.31;6058774;23;20188;-65
2023/12/23 12:33:53;;;;;;;1.93;0.77;;;;;;;11.52;76.08;100057.16;6057359;23;20679;-64
2023/12/23 12:36:21;;;;;;;1.00;0.40;;;;;;;11.55;75.67;100046.22;6059543;23;20184;-68
2023/12/23 12:38:50;;;;;;;0.70;0.40;;;;;;;11.53;75.49;100057.97;6059666;23;20514;-65
2023/12/23 12:41:18;;;;;;;2.33;0.40;;;;;;;11.54;75.28;100059.66;6058850;23;20187;-65
2023/12/23 12:43:46;;;;;;;2.00;0.90;;;;;;;11.54;75.32;100064.94;6058064;23;20191;-65
2023/12/23 12:46:15;;;;;;;1.80;0.50;;;;;;;11.55;74.87;100066.63;6058575;23;20219;-65
2023/12/23 12:48:45;;;;;;;2.00;0.67;;;;;;;11.52;74.54;100077.59;6059582;23;20190;-66
2023/12/23 12:51:16;;;;;;;2.77;0.77;;;;;;;11.49;74.72;100057.50;6058791;23;20184;-64
2023/12/23 12:53:45;;;;;;;2.97;0.80;;;;;;;11.51;74.61;100067.97;6057554;23;21041;-64
2023/12/23 12:56:14;;;;;;;2.07;0.50;;;;;;;11.55;74.79;100062.13;6058285;23;20179;-66
2023/12/23 12:58:42;;;;;;;1.27;0.50;;;;;;;11.54;74.76;100070.25;6058877;23;20190;-65
2023/12/23 13:01:14;;;;;;;2.47;0.43;;;;;;;11.45;76.47;100077.38;6058998;23;20202;-65
2023/12/23 13:03:42;;;;;;;1.60;0.50;;;;;;;11.51;76.54;100060.81;6058862;23;20962;-64
2023/12/23 13:06:10;;;;;;;1.33;0.40;;;;;;;11.38;76.27;100076.38;6057594;23;20202;-65
2023/12/23 13:08:39;;;;;;;2.10;0.50;;;;;;;11.38;76.29;100067.59;6057904;23;20719;-65
2023/12/23 13:11:07;;;;;;;0.60;0.37;;;;;;;11.45;76.37;100081.88;6057738;23;20192;-67
2023/12/23 13:13:35;;;;;;;1.60;0.60;;;;;;;11.44;75.54;100070.41;6057882;23;20230;-65
2023/12/23 13:16:04;;;;;;;1.17;0.40;;;;;;;11.43;75.37;100071.44;6059194;23;20184;-65
2023/12/23 13:18:32;;;;;;;1.57;0.40;;;;;;;11.42;75.41;100079.56;6058950;23;20180;-65
2023/12/23 13:21:16;;;;;;;3.93;0.70;;;;;;;11.43;75.31;100060.81;6058272;23;20990;-65
2023/12/23 13:23:46;;;;;;;1.10;0.33;;;;;;;11.35;74.79;100066.06;6057322;23;21010;-65
2023/12/23 13:26:14;;;;;;;1.17;0.47;;;;;;;11.43;75.09;100076.75;6058360;23;20195;-65
2023/12/23 13:28:42;;;;;;;1.57;0.57;;;;;;;11.45;74.66;100080.03;6058126;23;20171;-65
2023/12/23 13:31:10;;;;;;;2.20;0.70;;;;;;;11.53;74.55;100090.66;6059594;23;20180;-66
2023/12/23 13:33:39;;;;;;;3.67;0.67;;;;;;;11.57;74.13;100107.97;6057645;23;20207;-66
2023/12/23 13:36:08;;;;;;;2.50;0.70;;;;;;;11.60;73.29;100110.28;6058176;23;20188;-68
2023/12/23 13:38:36;;;;;;;1.83;0.60;;;;;;;11.62;73.08;100105.63;6058111;23;20252;-66
2023/12/23 13:41:06;;;;;;;4.07;0.83;;;;;;;11.57;73.22;100123.88;6058456;23;20190;-64
2023/12/23 13:43:34;;;;;;;2.27;0.80;;;;;;;11.57;73.15;100105.31;6058635;23;20644;-65
2023/12/23 13:46:01;;;;;;;2.90;0.80;;;;;;;11.62;72.95;100105.63;6058264;23;20238;-66
2023/12/23 13:48:29;;;;;;;2.63;0.90;;;;;;;11.62;72.91;100110.94;6058370;23;20318;-65
2023/12/23 13:50:57;;;;;;;5.77;0.80;;;;;;;11.61;73.00;100138.47;6058725;23;20230;-65
2023/12/23 13:53:25;;;;;;;1.60;0.67;;;;;;;11.58;72.70;100130.03;6056731;23;21089;-64
2023/12/23 13:55:53;;;;;;;1.67;0.53;;;;;;;11.52;72.80;100128.84;6058446;23;20632;-65
2023/12/23 13:58:24;;;;;;;1.83;0.60;;;;;;;11.55;72.83;100125.88;6057306;23;20175;-65
2023/12/23 14:00:54;;;;;;;3.13;0.50;;;;;;;11.56;73.09;100137.31;6058248;23;20267;-64
2023/12/23 14:03:21;;;;;;;2.43;0.50;;;;;;;11.57;73.56;100161.06;6057131;23;20188;-67
2023/12/23 14:05:49;;;;;;;2.17;0.60;;;;;;;11.50;73.39;100144.13;6057534;23;20286;-64
2023/12/23 14:08:17;;;;;;;1.93;0.70;;;;;;;11.55;73.47;100139.16;6058284;23;20190;-65
2023/12/23 14:10:45;;;;;;;2.30;0.60;;;;;;;11.52;73.73;100142.13;6059305;23;20221;-64
2023/12/23 14:13:16;;;;;;;1.93;0.70;;;;;;;11.54;74.00;100150.75;6057843;23;20289;-66
2023/12/23 14:15:45;;;;;;;1.93;0.53;;;;;;;11.56;73.84;100146.13;6058198;23;20187;-66
2023/12/23 14:18:13;;;;;;;0.80;0.30;;;;;;;11.57;73.86;100155.75;6058496;23;20644;-65
2023/12/23 14:20:41;;;;;;;3.23;0.50;;;;;;;11.58;73.87;100162.72;6058355;23;20218;-64
2023/12/23 14:23:09;;;;;;;3.17;0.70;;;;;;;11.60;73.54;100166.06;6057769;23;20254;-65
2023/12/23 14:25:37;;;;;;;2.53;0.70;;;;;;;11.58;73.41;100170.69;6057521;23;20231;-65
2023/12/23 14:28:06;;;;;;;1.00;0.50;;;;;;;11.53;73.45;100149.09;6056328;23;20199;-65
2023/12/23 14:30:34;;;;;;;1.47;0.80;;;;;;;11.52;73.63;100162.56;6057072;23;20187;-66
2023/12/23 14:33:04;;;;;;;1.13;0.50;;;;;;;11.56;73.60;100163.88;6057128;23;20215;-66
2023/12/23 14:35:31;;;;;;;1.53;0.50;;;;;;;11.60;73.16;100171.38;6056699;23;20219;-65
2023/12/23 14:37:59;;;;;;;1.10;0.50;;;;;;;11.62;73.23;100164.06;6058968;23;20643;-65
2023/12/23 14:40:28;;;;;;;1.87;0.50;;;;;;;11.63;73.16;100175.50;6056956;23;20535;-64
2023/12/23 14:42:56;;;;;;;2.00;0.90;;;;;;;11.63;72.48;100175.50;6057477;23;20575;-65
2023/12/23 14:45:24;;;;;;;1.67;0.50;;;;;;;11.57;72.68;100179.66;6056860;23;20247;-65
2023/12/23 14:47:52;;;;;;;1.57;0.60;;;;;;;11.50;73.11;100186.59;6057300;23;20230;-65
2023/12/23 14:50:22;;;;;;;3.60;0.50;;;;;;;11.45;72.79;100175.63;6058594;23;20302;-64
2023/12/23 14:52:50;;;;;;;1.00;0.33;;;;;;;11.49;73.29;100179.63;6057263;23;20242;-64
2023/12/23 14:55:18;;;;;;;1.40;0.40;;;;;;;11.46;72.55;100171.97;6056787;23;20242;-66
2023/12/23 14:57:46;;;;;;;2.90;0.50;;;;;;;11.37;72.93;100178.25;6057343;23;20194;-64
2023/12/23 15:00:15;;;;;;;2.13;0.53;;;;;;;11.44;73.09;100184.56;6059369;23;20188;-64
2023/12/23 15:02:43;;;;;;;1.13;0.50;;;;;;;11.41;72.82;100184.91;6060920;23;20230;-64
2023/12/23 15:05:11;;;;;;;1.77;0.60;;;;;;;11.40;72.93;100188.56;6058642;23;20898;-64
2023/12/23 15:07:41;;;;;;;3.67;0.50;;;;;;;11.46;72.98;100190.56;6058513;23;20187;-65
2023/12/23 15:10:09;;;;;;;2.47;0.70;;;;;;;11.41;73.16;100182.25;6059456;23;20187;-64
2023/12/23 15:12:38;;;;;;;3.37;0.80;;;;;;;11.38;73.44;100189.69;6058715;23;20584;-64
2023/12/23 15:15:06;;;;;;;1.60;0.50;;;;;;;11.31;73.89;100203.63;6059019;23;20222;-64
2023/12/23 15:17:34;;;;;;;1.97;0.60;;;;;;;11.33;73.80;100206.13;6060809;23;20184;-64
2023/12/23 15:20:04;;;;;;;1.87;0.70;;;;;;;11.36;73.79;100197.81;6059368;23;20183;-63
2023/12/23 15:22:31;;;;;;;2.67;0.80;;;;;;;11.39;73.37;100205.47;6058948;23;20489;-65
2023/12/23 15:25:02;;;;;;;2.57;0.80;;;;;;;11.38;73.07;100213.59;6058247;23;20241;-64
2023/12/23 15:27:29;;;;;;;3.33;0.70;;;;;;;11.43;73.17;100211.31;6059324;23;20231;-64
2023/12/23 15:29:58;;;;;;;3.20;0.90;;;;;;;11.45;73.09;100211.97;6060952;23;20198;-64
2023/12/23 15:32:25;;;;;;;3.57;0.83;;;;;;;11.47;72.64;100208.16;6058355;23;21057;-63
2023/12/23 15:34:54;;;;;;;3.17;0.83;;;;;;;11.46;72.58;100214.47;6058158;23;20203;-64
2023/12/23 15:37:21;;;;;;;2.73;0.60;;;;;;;11.44;72.27;100224.41;6058790;23;20239;-64
2023/12/23 15:39:49;;;;;;;3.93;0.73;;;;;;;11.44;72.17;100226.22;6058629;23;20219;-64
2023/12/23 15:42:19;;;;;;;3.10;0.60;;;;;;;11.44;72.15;100236.84;6060732;23;20237;-65
2023/12/23 15:44:46;;;;;;;4.43;0.63;;;;;;;11.43;71.76;100225.41;6059511;23;20214;-65
2023/12/23 15:47:14;;;;;;;3.70;1.00;;;;;;;11.41;71.94;100223.91;6059156;23;20187;-65
2023/12/23 15:49:42;;;;;;;3.00;0.90;;;;;;;11.38;71.70;100222.38;6058742;23;20175;-65
2023/12/23 15:52:10;;;;;;;2.03;0.60;;;;;;;11.42;71.81;100229.06;6059312;23;20203;-64
2023/12/23 15:54:38;;;;;;;2.00;0.63;;;;;;;11.46;71.89;100248.13;6058082;23;20290;-67
2023/12/23 15:57:06;;;;;;;2.03;0.40;;;;;;;11.45;72.00;100246.47;6059124;23;20223;-63
2023/12/23 15:59:35;;;;;;;4.20;0.97;;;;;;;11.47;72.38;100242.69;6058951;23;20188;-66
2023/12/23 16:02:03;;;;;;;4.97;0.90;;;;;;;11.51;72.50;100252.00;6059034;23;20183;-64
2023/12/23 16:04:32;;;;;;;1.73;0.80;;;;;;;11.49;72.58;100263.75;6057819;23;20195;-64
2023/12/23 16:07:00;;;;;;;2.13;0.80;;;;;;;11.55;72.83;100253.34;6058818;23;20190;-65
2023/12/23 16:09:28;;;;;;;5.20;1.13;;;;;;;11.57;73.06;100251.34;6059159;23;20279;-66
2023/12/23 16:11:56;;;;;;;6.40;1.03;;;;;;;11.58;73.48;100257.50;6058747;23;20193;-65
2023/12/23 16:14:23;;;;;;;2.47;0.73;;;;;;;11.58;74.08;100253.03;6057720;23;20296;-65
2023/12/23 16:16:53;;;;;;;2.37;1.00;;;;;;;11.59;74.16;100256.50;6058854;23;20584;-67
2023/12/23 16:19:21;;;;;;;3.80;0.80;;;;;;;11.60;74.84;100264.31;6057934;23;20239;-66
2023/12/23 16:21:48;;;;;;;3.77;1.00;;;;;;;11.57;75.73;100259.31;6059448;23;20235;-65
2023/12/23 16:24:16;;;;;;;3.23;0.90;;;;;;;11.55;76.30;100258.66;6057523;23;20797;-65
2023/12/23 16:26:44;;;;;;;6.03;1.00;;;;;;;11.50;77.10;100266.25;6058062;23;20205;-63
2023/12/23 16:29:12;;;;;;;2.50;0.90;;;;;;;11.50;77.52;100278.72;6058607;23;20179;-65
2023/12/23 16:31:40;;;;;;;3.03;1.10;;;;;;;11.51;77.61;100275.91;6057908;23;20655;-64
2023/12/23 16:34:10;;;;;;;2.30;0.90;;;;;;;11.56;77.35;100286.03;6057832;23;20211;-65
2023/12/23 16:36:37;;;;;;;2.60;0.80;;;;;;;11.55;77.72;100273.75;6058864;23;20187;-64
2023/12/23 16:39:06;;;;;;;2.10;0.90;;;;;;;11.59;77.41;100264.47;6058320;23;20219;-66
2023/12/23 16:41:34;;;;;;;1.50;0.60;;;;;;;11.60;77.60;100266.97;6058743;23;20219;-66
2023/12/23 16:44:02;;;;;;;3.03;0.93;;;;;;;11.55;78.07;100263.94;6058223;23;20223;-65
2023/12/23 16:46:30;;;;;;;4.70;1.13;;;;;;;11.57;78.04;100272.59;6058516;23;20538;-64
2023/12/23 16:48:58;;;;;;;2.03;0.90;;;;;;;11.60;77.84;100269.63;6059290;23;20215;-65
2023/12/23 16:51:27;;;;;;;2.10;0.67;;;;;;;11.59;77.92;100265.31;6058832;23;20265;-65
2023/12/23 16:53:55;;;;;;;1.97;0.60;;;;;;;11.58;78.04;100266.31;6057154;23;20669;-65
2023/12/23 16:56:23;;;;;;;1.30;0.60;;;;;;;11.54;77.98;100272.91;6058086;23;20211;-64
2023/12/23 16:58:51;;;;;;;2.73;1.00;;;;;;;11.57;77.46;100271.75;6057487;23;20242;-66
2023/12/23 17:01:19;;;;;;;1.13;0.60;;;;;;;11.45;77.49;100278.34;6059799;23;20188;-64
2023/12/23 17:03:47;;;;;;;2.10;0.83;;;;;;;11.49;77.31;100280.53;6056968;23;20188;-65
2023/12/23 17:06:15;;;;;;;2.83;0.80;;;;;;;11.54;77.09;100294.16;6057333;23;20592;-65
2023/12/23 17:08:44;;;;;;;2.07;0.83;;;;;;;11.50;77.37;100299.94;6057815;23;20188;-66
2023/12/23 17:11:15;;;;;;;1.30;0.50;;;;;;;11.50;77.27;100303.44;6058202;23;20183;-65
2023/12/23 17:13:43;;;;;;;1.30;0.50;;;;;;;11.44;77.47;100306.72;6058102;23;20219;-67
2023/12/23 17:16:13;;;;;;;1.70;0.40;;;;;;;11.52;77.38;100311.25;6057773;23;20208;-65
2023/12/23 17:18:41;;;;;;;1.50;0.50;;;;;;;11.51;77.59;100307.75;6058037;23;20184;-65
2023/12/23 17:21:12;;;;;;;1.43;0.70;;;;;;;11.47;77.89;100298.44;6057254;23;20632;-64
2023/12/23 17:23:39;;;;;;;1.43;0.50;;;;;;;11.47;77.87;100302.91;6056873;23;20290;-64
2023/12/23 17:26:09;;;;;;;1.03;0.43;;;;;;;11.45;78.42;100299.56;6061572;23;20192;-65
2023/12/23 17:28:37;;;;;;;3.60;0.60;;;;;;;11.44;78.58;100304.06;6058949;23;20643;-70
2023/12/23 17:31:05;;;;;;;1.17;0.43;;;;;;;11.45;78.56;100308.38;6057789;23;20803;-64
2023/12/23 17:33:32;;;;;;;1.40;0.40;;;;;;;11.39;78.77;100308.19;6056829;23;20218;-65